Flight Track Log - Related Links

Times and Time Zones

All times are in EDT time to prevent confusion due to time zone crossing. See the RSP513 flight status page for this flight to view local times or setup timezone preferences in your user account.

Time Position Orientation Groundspeed Altitude Reporting Facility
EDT Latitude Longitude Course Direction KTS MPH feet Rate Location/Type
Wed 11:09:41 AM 33.6333 -111.9000 335° Northwest 142 163 2,200  Level Phoenix TRACON
Wed 11:11:06 AM 33.6500 -111.9667 287° West 193 222 5,300 2,359 Climbing Phoenix TRACON
Wed 11:12:06 AM 33.6833 -112.0167 309° West 211 243 7,900 2,227 Climbing Phoenix TRACON
Wed 11:13:18 AM 33.7422 -112.0569 330° Northwest 223 257 10,200 1,925 Climbing Albuquerque Center
Wed 11:14:20 AM 33.7925 -112.1069 320° Northwest 235 270 12,200 1,742 Climbing Albuquerque Center
Wed 11:15:00 AM 33.9844 -112.2987 335° Northwest  Level FlightAware Approximate
Wed 11:15:22 AM 33.8478 -112.1592 322° Northwest 248 285 13,800  Level Albuquerque Center
Wed 11:16:24 AM 33.9044 -112.2144 321° Northwest 259 298 15,800 1,887 Climbing Albuquerque Center
Wed 11:17:26 AM 33.9608 -112.2689 321° Northwest 259 298 17,700 1,887 Climbing Albuquerque Center
Wed 11:18:28 AM 34.0153 -112.3222 321° Northwest 253 291 19,700 1,839 Climbing Albuquerque Center
Wed 11:19:30 AM 34.0933 -112.3739 331° Northwest 267 307 21,500 1,597 Climbing Albuquerque Center
Wed 11:20:32 AM 34.1497 -112.4328 319° Northwest 273 314 23,000 1,452 Climbing Albuquerque Center
Wed 11:21:34 AM 34.1933 -112.5114 304° West 282 325 24,500 1,403 Climbing Albuquerque Center
Wed 11:22:36 AM 34.2375 -112.5889 305° West 279 321 25,900 1,248 Climbing Albuquerque Center
Wed 11:23:39 AM 34.2819 -112.6700 304° West 285 328 27,100 1,152 Climbing Albuquerque Center
Wed 11:24:41 AM 34.3294 -112.7514 305° West 294 338 28,300 1,306 Climbing Albuquerque Center
Wed 11:25:43 AM 34.3858 -112.8503 305° West 297 342 29,800 1,306 Climbing Albuquerque Center
Wed 11:26:45 AM 34.4308 -112.9322 304° West 294 338 31,000 1,161 Climbing Albuquerque Center
Wed 11:27:47 AM 34.4775 -113.0167 304° West 297 342 32,200 1,113 Climbing Albuquerque Center
Wed 11:28:49 AM 34.5236 -113.0994 304° West 298 343 33,300 871 Climbing Albuquerque Center
Wed 11:29:51 AM 34.5689 -113.1803 304° West 295 339 34,000 339 Climbing Albuquerque Center
Wed 11:30:53 AM 34.6161 -113.2639 304° West 295 339 34,000  Level Albuquerque Center
Wed 11:31:55 AM 34.6653 -113.3528 304° West 303 349 34,000  Level Albuquerque Center
Wed 11:32:57 AM 34.7286 -113.4672 304° West 321 369 34,000  Level Albuquerque Center
Wed 11:33:59 AM 34.7806 -113.5644 303° West 332 382 34,000  Level Albuquerque Center
Wed 11:35:01 AM 34.8336 -113.6583 305° West 336 387 34,000  Level Albuquerque Center
Wed 11:35:56 AM 34.8750 -113.7356 303° West 338 389 34,000 410 Level Los Angeles Center
Wed 11:36:58 AM 34.9467 -113.8408 310° West 337 388 34,800 484 Climbing Los Angeles Center
Wed 11:38:00 AM 35.0033 -113.9286 308° West 333 383 35,000 96 Climbing Los Angeles Center
Wed 11:39:03 AM 35.0608 -114.0150 309° West 329 379 35,000  Level Los Angeles Center
Wed 11:40:05 AM 35.1200 -114.1053 309° West 337 388 35,000  Level Los Angeles Center
Wed 11:41:07 AM 35.1794 -114.1950 309° West 339 390 35,000  Level Los Angeles Center
Wed 11:42:09 AM 35.2503 -114.3033 309° West 340 391 35,000  Level Los Angeles Center
Wed 11:43:11 AM 35.3086 -114.3908 309° West 335 386 35,000  Level Los Angeles Center
Wed 11:44:16 AM 35.3675 -114.4817 309° West 338 389 35,000  Level Los Angeles Center
Wed 11:45:17 AM 35.4258 -114.5703 309° West 335 386 35,000  Level Los Angeles Center
Wed 11:46:18 AM 35.4839 -114.6628 308° West 340 391 35,000  Level Los Angeles Center
Wed 11:47:20 AM 35.5425 -114.7517 309° West 337 388 35,000 145 Level Los Angeles Center
Wed 11:48:22 AM 35.6125 -114.8611 308° West 338 389 35,300 387 Climbing Los Angeles Center
Wed 11:49:24 AM 35.6714 -114.9506 309° West 338 389 35,800 339 Climbing Los Angeles Center
Wed 11:50:26 AM 35.7289 -115.0378 309° West 330 380 36,000 97 Climbing Los Angeles Center
Wed 11:51:28 AM 35.7853 -115.1278 308° West 331 381 36,000  Level Los Angeles Center
Wed 11:52:31 AM 35.8428 -115.2172 308° West 332 382 36,000  Level Los Angeles Center
Wed 11:53:33 AM 35.9006 -115.3075 308° West 334 384 36,000  Level Los Angeles Center
Wed 11:54:35 AM 35.9689 -115.4150 308° West 332 382 36,000  Level Los Angeles Center
Wed 11:55:37 AM 36.0267 -115.5061 308° West 334 384 36,000  Level Los Angeles Center
Wed 11:56:39 AM 36.0847 -115.5967 308° West 333 383 36,000  Level Los Angeles Center
Wed 11:57:41 AM 36.1422 -115.6892 308° West 335 386 36,000  Level Los Angeles Center
Wed 11:58:43 AM 36.2000 -115.7825 308° West 336 387 36,000  Level Los Angeles Center
Wed 11:59:46 AM 36.2636 -115.8822 308° West 337 388 36,000  Level Los Angeles Center
Wed 12:00:48 PM 36.3214 -115.9728 308° West 335 386 36,000  Level Los Angeles Center
Wed 12:01:50 PM 36.3781 -116.0625 308° West 332 382 36,000  Level Los Angeles Center
Wed 12:02:52 PM 36.4344 -116.1533 308° West 332 382 36,000  Level Los Angeles Center
Wed 12:03:54 PM 36.4917 -116.2650 303° West 330 380 36,000  Level Los Angeles Center
Wed 12:04:56 PM 36.5258 -116.3717 292° West 333 383 36,000  Level Los Angeles Center
Wed 12:05:58 PM 36.5617 -116.4856 291° West 334 384 36,000  Level Los Angeles Center
Wed 12:07:01 PM 36.5958 -116.5931 292° West 333 383 36,000  Level Los Angeles Center
Wed 12:08:03 PM 36.6303 -116.7017 292° West 336 387 36,000  Level Los Angeles Center
Wed 12:09:05 PM 36.6625 -116.8094 290° West 333 383 36,000  Level Los Angeles Center
Wed 12:10:07 PM 36.7017 -116.9306 292° West 337 388 36,000  Level Los Angeles Center
Wed 12:11:09 PM 36.7353 -117.0389 291° West 337 388 36,000  Level Los Angeles Center
Wed 12:12:11 PM 36.7686 -117.1467 291° West 336 387 36,000  Level Los Angeles Center
Wed 12:13:13 PM 36.8044 -117.2639 291° West 333 383 36,000  Level Los Angeles Center
Wed 12:14:16 PM 36.8372 -117.3706 291° West 329 379 36,000  Level Los Angeles Center
Wed 12:15:18 PM 36.8706 -117.4797 291° West 333 383 36,000  Level Los Angeles Center
Wed 12:16:20 PM 36.9039 -117.5869 291° West 332 382 36,000  Level Los Angeles Center
Wed 12:17:22 PM 36.9372 -117.6967 291° West 335 386 36,000  Level Los Angeles Center
Wed 12:18:04 PM 36.9636 -117.7858 290° West 337 388 36,000  Level Oakland Center
Wed 12:19:05 PM 36.9975 -117.8939 291° West 335 386 36,000  Level Oakland Center
Wed 12:20:07 PM 37.0300 -118.0033 290° West 334 384 36,000  Level Oakland Center
Wed 12:21:08 PM 37.0631 -118.1133 291° West 336 387 36,000  Level Oakland Center
Wed 12:22:09 PM 37.0933 -118.2203 290° West 331 381 36,000  Level Oakland Center
Wed 12:23:11 PM 37.1269 -118.3300 291° West 337 388 36,000  Level Oakland Center
Wed 12:24:12 PM 37.1656 -118.4611 290° West 335 386 36,000  Level Oakland Center
Wed 12:25:14 PM 37.1950 -118.5614 290° West 337 388 36,000  Level Oakland Center
Wed 12:26:15 PM 37.2272 -118.6722 290° West 338 389 36,000  Level Oakland Center
Wed 12:27:16 PM 37.2481 -118.7875 283° West 342 394 36,000  Level Oakland Center
Wed 12:28:18 PM 37.2661 -118.9033 281° West 340 391 36,000  Level Oakland Center
Wed 12:29:19 PM 37.2878 -119.0436 281° West 343 395 36,000  Level Oakland Center
Wed 12:30:21 PM 37.3047 -119.1592 280° West 340 391 36,000  Level Oakland Center
Wed 12:31:22 PM 37.3217 -119.2750 280° West 338 389 36,000  Level Oakland Center
Wed 12:32:24 PM 37.3392 -119.3906 281° West 338 389 36,000  Level Oakland Center
Wed 12:33:25 PM 37.3583 -119.5164 281° West 337 388 36,000  Level Oakland Center
Wed 12:34:26 PM 37.3750 -119.6328 280° West 339 390 36,000  Level Oakland Center
Wed 12:35:28 PM 37.3925 -119.7489 281° West 339 390 36,000  Level Oakland Center
Wed 12:36:29 PM 37.4086 -119.8661 280° West 339 390 36,000  Level Oakland Center
Wed 12:37:31 PM 37.4261 -119.9817 281° West 338 389 36,000  Level Oakland Center
Wed 12:38:32 PM 37.4419 -120.0981 280° West 338 389 36,000  Level Oakland Center
Wed 12:39:34 PM 37.4586 -120.2172 280° West 343 395 36,000 -293 Level Oakland Center
Wed 12:40:35 PM 37.4761 -120.3356 281° West 344 396 35,400 -732 Descending Oakland Center
Wed 12:41:37 PM 37.4931 -120.4606 280° West 356 410 34,500 -1,024 Descending Oakland Center
Wed 12:42:38 PM 37.5153 -120.6169 280° West 375 432 33,300 -1,024 Descending Oakland Center
Wed 12:43:40 PM 37.5328 -120.7444 280° West 371 427 32,400 -1,024 Descending Oakland Center
Wed 12:44:41 PM 37.5506 -120.8744 280° West 375 432 31,200 -1,268 Descending Oakland Center
Wed 12:45:43 PM 37.5675 -121.0064 279° West 379 436 29,800 -1,415 Descending Oakland Center
Wed 12:46:44 PM 37.5864 -121.1403 280° West 387 445 28,300 -1,463 Descending Oakland Center
Wed 12:47:46 PM 37.6033 -121.2711 279° West 389 448 26,800 -1,561 Descending Oakland Center
Wed 12:48:47 PM 37.6217 -121.4050 280° West 378 435 25,100 -1,951 Descending Oakland Center
Wed 12:49:49 PM 37.6397 -121.5481 279° West 358 412 22,800 -2,081 Descending Oakland Center
Wed 12:50:51 PM 37.6556 -121.6683 279° West 349 402 20,800 -2,000 Descending Oakland Center
Wed 12:51:52 PM 37.6719 -121.7878 280° West 348 400 18,700 -1,951 Descending Oakland Center
Wed 12:52:54 PM 37.7133 -121.8936 296° West 348 400 16,800 -2,049 Descending Oakland Center
Wed 12:53:55 PM 37.7650 -121.9875 305° West 331 381 14,500 -2,244 Descending Oakland Center
Wed 12:54:57 PM 37.8194 -122.0744 308° West 319 367 12,200 -2,341 Descending Oakland Center
Wed 12:55:58 PM 37.8961 -122.1139 338° Northwest 302 348 9,700 -2,000 Descending Oakland Center
Wed 12:57:00 PM 37.9683 -122.1531 337° Northwest 288 331 8,100 -2,195 Descending Oakland Center
Wed 12:58:01 PM 38.0386 -122.2097 328° Northwest 258 297 5,200 -2,634 Descending Oakland Center
Wed 12:59:03 PM 38.0933 -122.2594 324° Northwest 247 284 2,700 -1,561 Descending Oakland Center
Wed 01:00:04 PM 38.1367 -122.3003 323° Northwest 203 234 2,000 -878 Descending Oakland Center
Wed 01:01:06 PM 38.1706 -122.3022 357° North 149 171 900 -927 Descending Oakland Center
Wed 01:02:07 PM 38.2011 -122.2906 17° North 126 145 100 -787 Descending Oakland Center
Wed 01:04:00 PM 38.2000 -122.2667 North  Level FlightAware Approximate
Wed 01:11:00 PM 38.2132 -122.2807 North  Level Estimated

Login

Don't have an account? Register now (free) for customized features, flight alerts, and more!